Andiamo — DLLX — position and weather

sailwx.info

Track history (hours):
 
Tides and Currents Weather Stations Pressure Air Temp Water Temp Dewpoint Dewpoint Depression Visibility Wind Speed Wind Dir Waves Ship Positions

Andiamo

Last reported at 2014-Jun-18 00:06 UTC. Time now 2014-Sep-02 02:12 UTC.
Position N 43°23' E 004°50'.
Warning: this ship's position is months out of date.

Length 13 m.

Type: Sailing vessel. MMSI: 211255360.

Date/timePositionNaut miles runAvg speedWind from/ knotsBaromVisibWave heightAir tempDewpointWater temp
2014-Jun-18 00:06N 43°23' E 004°50'1 1.7
2014-Jun-17 23:33N 43°23' E 004°51'4 3.8
2014-Jun-17 22:33N 43°23' E 004°56'5 5.1
2014-Jun-17 21:33N 43°18' E 004°58'41 5.7
2014-Jun-17 14:24N 43°02' E 005°49'6 5.8
2014-Jun-17 13:25N 43°01' E 005°57'6 6.1
2014-Jun-17 12:30N 42°59' E 006°04'6 6.1
2014-Jun-17 11:28N 42°58' E 006°13'54 5.8
2014-Jun-17 02:03N 43°28' E 007°15'79 5.8
2014-Jun-16 12:28N 44°17' E 008°40'5 5.7
2014-Jun-16 11:31N 44°20' E 008°47'6 5.7
2014-Jun-16 10:32N 44°22' E 008°54'  
Track history (hours):
 
Tides and Currents Weather Stations Pressure Air Temp Water Temp Dewpoint Dewpoint Depression Visibility Wind Speed Wind Dir Waves Ship Positions

Andiamo

Last reported at 2014-Jun-18 00:06 UTC. Time now 2014-Sep-02 02:12 UTC.
Position N 43°23' E 004°50'.
Warning: this ship's position is months out of date.

Length 13 m.

Type: Sailing vessel. MMSI: 211255360.

Date/timePositionNaut miles runAvg speedWind from/ knotsBaromVisibWave heightAir tempDewpointWater temp
2014-Jun-18 00:06N 43°23' E 004°50'1 1.7
2014-Jun-17 23:33N 43°23' E 004°51'4 3.8
2014-Jun-17 22:33N 43°23' E 004°56'5 5.1
2014-Jun-17 21:33N 43°18' E 004°58'41 5.7
2014-Jun-17 14:24N 43°02' E 005°49'6 5.8
2014-Jun-17 13:25N 43°01' E 005°57'6 6.1
2014-Jun-17 12:30N 42°59' E 006°04'6 6.1
2014-Jun-17 11:28N 42°58' E 006°13'54 5.8
2014-Jun-17 02:03N 43°28' E 007°15'79 5.8
2014-Jun-16 12:28N 44°17' E 008°40'5 5.7
2014-Jun-16 11:31N 44°20' E 008°47'6 5.7
2014-Jun-16 10:32N 44°22' E 008°54'  

Dump ship's entire track history